Terminal Aerodrome Forecast
Issued by NWS Shreveport, LA

Home | Current Version | Previous Version | Text Only | Print | Product List | Glossary On
Versions: 1 2 3 4 5 6 7 8 9 10 11 12 13 14 15 16
000
FTUS44 KSHV 282300
TAFLFK
TAF
KLFK 282329Z 0100/0124 07007KT P6SM OVC040
      TEMPO 0104/0107 -RA OVC020
     FM010700 06005KT 3SM RA BR OVC007
     FM011900 05004KT P6SM OVC015=

USA.gov is the U.S. government's official web portal to all federal, state and local government web resources and services.